sensor_id;sensor_type;location;lat;lon;timestamp;P1;durP1;ratioP1;P2;durP2;ratioP2
4961;SDS011;2496;52.468;13.342;2023-06-24T00:01:16;17.30;;;14.30;;
4961;SDS011;2496;52.468;13.342;2023-06-24T00:03:44;23.23;;;16.60;;
4961;SDS011;2496;52.468;13.342;2023-06-24T00:06:12;26.03;;;17.47;;
4961;SDS011;2496;52.468;13.342;2023-06-24T00:08:43;25.37;;;17.57;;
4961;SDS011;2496;52.468;13.342;2023-06-24T00:11:11;19.93;;;17.70;;
4961;SDS011;2496;52.468;13.342;2023-06-24T00:13:39;21.97;;;18.57;;
4961;SDS011;2496;52.468;13.342;2023-06-24T00:16:06;20.33;;;18.07;;
4961;SDS011;2496;52.468;13.342;2023-06-24T00:18:33;25.80;;;18.73;;
4961;SDS011;2496;52.468;13.342;2023-06-24T00:21:01;24.13;;;18.90;;
4961;SDS011;2496;52.468;13.342;2023-06-24T00:23:29;26.57;;;19.63;;
4961;SDS011;2496;52.468;13.342;2023-06-24T00:25:59;31.93;;;18.80;;
4961;SDS011;2496;52.468;13.342;2023-06-24T00:28:28;35.67;;;21.87;;
4961;SDS011;2496;52.468;13.342;2023-06-24T00:30:56;24.80;;;19.43;;
4961;SDS011;2496;52.468;13.342;2023-06-24T00:33:24;30.73;;;21.00;;
4961;SDS011;2496;52.468;13.342;2023-06-24T00:35:51;25.07;;;20.37;;
4961;SDS011;2496;52.468;13.342;2023-06-24T00:38:19;27.27;;;22.27;;
4961;SDS011;2496;52.468;13.342;2023-06-24T00:40:46;24.83;;;21.83;;
4961;SDS011;2496;52.468;13.342;2023-06-24T00:43:14;27.47;;;20.87;;
4961;SDS011;2496;52.468;13.342;2023-06-24T00:45:41;27.03;;;21.20;;
4961;SDS011;2496;52.468;13.342;2023-06-24T00:48:13;27.47;;;21.67;;
4961;SDS011;2496;52.468;13.342;2023-06-24T00:50:40;28.53;;;20.47;;
4961;SDS011;2496;52.468;13.342;2023-06-24T00:53:10;28.40;;;21.57;;
4961;SDS011;2496;52.468;13.342;2023-06-24T00:55:39;37.03;;;21.13;;
4961;SDS011;2496;52.468;13.342;2023-06-24T00:58:07;26.73;;;20.27;;
4961;SDS011;2496;52.468;13.342;2023-06-24T01:00:35;26.20;;;20.53;;
4961;SDS011;2496;52.468;13.342;2023-06-24T01:03:02;25.07;;;20.20;;
4961;SDS011;2496;52.468;13.342;2023-06-24T01:05:30;26.70;;;20.80;;
4961;SDS011;2496;52.468;13.342;2023-06-24T01:08:00;25.60;;;19.47;;
4961;SDS011;2496;52.468;13.342;2023-06-24T01:10:29;26.67;;;19.00;;
4961;SDS011;2496;52.468;13.342;2023-06-24T01:12:57;22.20;;;19.30;;
4961;SDS011;2496;52.468;13.342;2023-06-24T01:15:24;24.87;;;19.83;;
4961;SDS011;2496;52.468;13.342;2023-06-24T01:17:55;24.77;;;20.70;;
4961;SDS011;2496;52.468;13.342;2023-06-24T01:20:28;26.53;;;21.07;;
4961;SDS011;2496;52.468;13.342;2023-06-24T01:23:11;27.27;;;18.60;;
4961;SDS011;2496;52.468;13.342;2023-06-24T01:26:05;29.00;;;19.83;;
4961;SDS011;2496;52.468;13.342;2023-06-24T01:28:51;27.07;;;19.80;;
4961;SDS011;2496;52.468;13.342;2023-06-24T01:31:40;37.87;;;19.70;;
4961;SDS011;2496;52.468;13.342;2023-06-24T01:34:17;22.80;;;19.10;;
4961;SDS011;2496;52.468;13.342;2023-06-24T01:36:55;28.17;;;19.43;;
4961;SDS011;2496;52.468;13.342;2023-06-24T01:39:29;22.67;;;19.70;;
4961;SDS011;2496;52.468;13.342;2023-06-24T01:42:03;28.70;;;20.30;;
4961;SDS011;2496;52.468;13.342;2023-06-24T01:44:34;25.90;;;19.20;;
4961;SDS011;2496;52.468;13.342;2023-06-24T01:47:04;24.93;;;19.97;;
4961;SDS011;2496;52.468;13.342;2023-06-24T01:49:33;24.80;;;19.50;;
4961;SDS011;2496;52.468;13.342;2023-06-24T01:52:07;27.20;;;20.83;;
4961;SDS011;2496;52.468;13.342;2023-06-24T01:54:35;21.00;;;18.50;;
4961;SDS011;2496;52.468;13.342;2023-06-24T01:57:05;25.73;;;20.80;;
4961;SDS011;2496;52.468;13.342;2023-06-24T01:59:35;23.07;;;19.30;;
4961;SDS011;2496;52.468;13.342;2023-06-24T02:02:07;20.97;;;18.33;;
4961;SDS011;2496;52.468;13.342;2023-06-24T02:04:34;25.90;;;20.03;;
4961;SDS011;2496;52.468;13.342;2023-06-24T02:07:03;22.87;;;19.17;;
4961;SDS011;2496;52.468;13.342;2023-06-24T02:09:31;23.33;;;17.53;;
4961;SDS011;2496;52.468;13.342;2023-06-24T02:12:00;22.57;;;17.67;;
4961;SDS011;2496;52.468;13.342;2023-06-24T02:14:28;20.57;;;18.37;;
4961;SDS011;2496;52.468;13.342;2023-06-24T02:16:57;18.30;;;16.30;;
4961;SDS011;2496;52.468;13.342;2023-06-24T02:19:29;18.77;;;16.40;;
4961;SDS011;2496;52.468;13.342;2023-06-24T02:21:57;21.03;;;16.87;;
4961;SDS011;2496;52.468;13.342;2023-06-24T02:24:25;20.77;;;16.17;;
4961;SDS011;2496;52.468;13.342;2023-06-24T02:26:54;22.23;;;16.80;;
4961;SDS011;2496;52.468;13.342;2023-06-24T02:29:22;23.63;;;14.67;;
4961;SDS011;2496;52.468;13.342;2023-06-24T02:31:51;19.77;;;15.33;;
4961;SDS011;2496;52.468;13.342;2023-06-24T02:34:19;18.73;;;13.57;;
4961;SDS011;2496;52.468;13.342;2023-06-24T02:36:47;21.13;;;14.00;;
4961;SDS011;2496;52.468;13.342;2023-06-24T02:39:14;16.13;;;14.10;;
4961;SDS011;2496;52.468;13.342;2023-06-24T02:41:41;17.77;;;14.73;;
4961;SDS011;2496;52.468;13.342;2023-06-24T02:44:09;19.10;;;14.50;;
4961;SDS011;2496;52.468;13.342;2023-06-24T02:46:36;26.73;;;14.30;;
4961;SDS011;2496;52.468;13.342;2023-06-24T02:49:05;17.27;;;13.57;;
4961;SDS011;2496;52.468;13.342;2023-06-24T02:51:33;18.83;;;14.23;;
4961;SDS011;2496;52.468;13.342;2023-06-24T02:54:02;15.87;;;12.60;;
4961;SDS011;2496;52.468;13.342;2023-06-24T02:56:30;15.37;;;12.80;;
4961;SDS011;2496;52.468;13.342;2023-06-24T02:58:58;15.83;;;12.60;;
4961;SDS011;2496;52.468;13.342;2023-06-24T03:01:25;14.50;;;11.97;;
4961;SDS011;2496;52.468;13.342;2023-06-24T03:03:53;15.43;;;12.00;;
4961;SDS011;2496;52.468;13.342;2023-06-24T03:06:21;16.27;;;12.80;;
4961;SDS011;2496;52.468;13.342;2023-06-24T03:08:49;18.03;;;12.30;;
4961;SDS011;2496;52.468;13.342;2023-06-24T03:11:19;19.50;;;12.50;;
4961;SDS011;2496;52.468;13.342;2023-06-24T03:13:46;20.60;;;13.97;;
4961;SDS011;2496;52.468;13.342;2023-06-24T03:16:13;14.73;;;12.40;;
4961;SDS011;2496;52.468;13.342;2023-06-24T03:18:40;19.97;;;12.80;;
4961;SDS011;2496;52.468;13.342;2023-06-24T03:21:08;13.87;;;12.40;;
4961;SDS011;2496;52.468;13.342;2023-06-24T03:23:35;17.00;;;12.57;;
4961;SDS011;2496;52.468;13.342;2023-06-24T03:26:02;15.07;;;12.87;;
4961;SDS011;2496;52.468;13.342;2023-06-24T03:28:32;16.07;;;12.83;;
4961;SDS011;2496;52.468;13.342;2023-06-24T03:30:59;14.33;;;11.90;;
4961;SDS011;2496;52.468;13.342;2023-06-24T03:33:26;14.67;;;12.17;;
4961;SDS011;2496;52.468;13.342;2023-06-24T03:35:53;20.60;;;12.00;;
4961;SDS011;2496;52.468;13.342;2023-06-24T03:38:20;18.17;;;12.23;;
4961;SDS011;2496;52.468;13.342;2023-06-24T03:40:47;19.73;;;11.97;;
4961;SDS011;2496;52.468;13.342;2023-06-24T03:43:14;18.23;;;11.97;;
4961;SDS011;2496;52.468;13.342;2023-06-24T03:45:42;14.27;;;11.93;;
4961;SDS011;2496;52.468;13.342;2023-06-24T03:48:09;20.43;;;11.57;;
4961;SDS011;2496;52.468;13.342;2023-06-24T03:50:36;18.03;;;12.57;;
4961;SDS011;2496;52.468;13.342;2023-06-24T03:53:03;16.23;;;12.00;;
4961;SDS011;2496;52.468;13.342;2023-06-24T03:55:30;14.30;;;12.70;;
4961;SDS011;2496;52.468;13.342;2023-06-24T03:57:57;14.10;;;10.73;;
4961;SDS011;2496;52.468;13.342;2023-06-24T04:00:24;17.53;;;11.60;;
4961;SDS011;2496;52.468;13.342;2023-06-24T04:02:53;20.73;;;12.13;;
4961;SDS011;2496;52.468;13.342;2023-06-24T04:05:20;20.80;;;12.70;;
4961;SDS011;2496;52.468;13.342;2023-06-24T04:07:47;22.90;;;13.73;;
4961;SDS011;2496;52.468;13.342;2023-06-24T04:10:15;20.00;;;12.50;;
4961;SDS011;2496;52.468;13.342;2023-06-24T04:12:43;14.17;;;11.63;;
4961;SDS011;2496;52.468;13.342;2023-06-24T04:15:10;18.50;;;11.77;;
4961;SDS011;2496;52.468;13.342;2023-06-24T04:17:37;16.50;;;12.80;;
4961;SDS011;2496;52.468;13.342;2023-06-24T04:20:06;16.30;;;11.63;;
4961;SDS011;2496;52.468;13.342;2023-06-24T04:22:34;16.83;;;12.03;;
4961;SDS011;2496;52.468;13.342;2023-06-24T04:25:02;15.30;;;11.33;;
4961;SDS011;2496;52.468;13.342;2023-06-24T04:27:31;16.97;;;12.50;;
4961;SDS011;2496;52.468;13.342;2023-06-24T04:29:58;21.57;;;13.33;;
4961;SDS011;2496;52.468;13.342;2023-06-24T04:32:25;16.73;;;12.00;;
4961;SDS011;2496;52.468;13.342;2023-06-24T04:34:52;14.93;;;12.93;;
4961;SDS011;2496;52.468;13.342;2023-06-24T04:37:20;23.83;;;14.07;;
4961;SDS011;2496;52.468;13.342;2023-06-24T04:39:47;17.83;;;12.43;;
4961;SDS011;2496;52.468;13.342;2023-06-24T04:42:14;15.50;;;13.07;;
4961;SDS011;2496;52.468;13.342;2023-06-24T04:44:41;19.20;;;14.47;;
4961;SDS011;2496;52.468;13.342;2023-06-24T04:47:08;18.87;;;14.10;;
4961;SDS011;2496;52.468;13.342;2023-06-24T04:49:35;22.40;;;12.97;;
4961;SDS011;2496;52.468;13.342;2023-06-24T04:52:02;21.37;;;12.87;;
4961;SDS011;2496;52.468;13.342;2023-06-24T04:54:33;14.07;;;12.03;;
4961;SDS011;2496;52.468;13.342;2023-06-24T04:57:00;17.03;;;14.63;;
4961;SDS011;2496;52.468;13.342;2023-06-24T04:59:27;17.10;;;13.23;;
4961;SDS011;2496;52.468;13.342;2023-06-24T05:01:54;16.83;;;12.70;;
4961;SDS011;2496;52.468;13.342;2023-06-24T05:04:21;18.53;;;13.43;;
4961;SDS011;2496;52.468;13.342;2023-06-24T05:06:48;25.50;;;13.27;;
4961;SDS011;2496;52.468;13.342;2023-06-24T05:09:15;18.10;;;12.63;;
4961;SDS011;2496;52.468;13.342;2023-06-24T05:11:43;17.90;;;12.73;;
4961;SDS011;2496;52.468;13.342;2023-06-24T05:14:10;19.23;;;14.00;;
4961;SDS011;2496;52.468;13.342;2023-06-24T05:16:37;24.20;;;14.13;;
4961;SDS011;2496;52.468;13.342;2023-06-24T05:19:04;17.50;;;13.30;;
4961;SDS011;2496;52.468;13.342;2023-06-24T05:21:31;31.07;;;13.33;;
4961;SDS011;2496;52.468;13.342;2023-06-24T05:23:58;18.63;;;13.83;;
4961;SDS011;2496;52.468;13.342;2023-06-24T05:26:25;16.57;;;12.50;;
4961;SDS011;2496;52.468;13.342;2023-06-24T05:28:55;21.97;;;14.20;;
4961;SDS011;2496;52.468;13.342;2023-06-24T05:31:22;15.90;;;13.20;;
4961;SDS011;2496;52.468;13.342;2023-06-24T05:33:48;21.90;;;12.97;;
4961;SDS011;2496;52.468;13.342;2023-06-24T05:36:15;17.50;;;12.23;;
4961;SDS011;2496;52.468;13.342;2023-06-24T05:38:42;16.87;;;12.50;;
4961;SDS011;2496;52.468;13.342;2023-06-24T05:41:09;16.80;;;11.77;;
4961;SDS011;2496;52.468;13.342;2023-06-24T05:43:36;14.50;;;12.03;;
4961;SDS011;2496;52.468;13.342;2023-06-24T05:46:05;14.70;;;11.77;;
4961;SDS011;2496;52.468;13.342;2023-06-24T05:48:32;14.57;;;11.73;;
4961;SDS011;2496;52.468;13.342;2023-06-24T05:50:59;16.00;;;11.17;;
4961;SDS011;2496;52.468;13.342;2023-06-24T05:53:26;18.77;;;11.27;;
4961;SDS011;2496;52.468;13.342;2023-06-24T05:55:53;18.87;;;12.20;;
4961;SDS011;2496;52.468;13.342;2023-06-24T05:58:20;14.43;;;11.27;;
4961;SDS011;2496;52.468;13.342;2023-06-24T06:00:47;14.57;;;11.20;;
4961;SDS011;2496;52.468;13.342;2023-06-24T06:03:15;16.93;;;11.63;;
4961;SDS011;2496;52.468;13.342;2023-06-24T06:05:42;16.37;;;11.83;;
4961;SDS011;2496;52.468;13.342;2023-06-24T06:08:09;21.13;;;12.07;;
4961;SDS011;2496;52.468;13.342;2023-06-24T06:10:39;16.73;;;12.00;;
4961;SDS011;2496;52.468;13.342;2023-06-24T06:13:06;17.60;;;12.63;;
4961;SDS011;2496;52.468;13.342;2023-06-24T06:15:33;15.53;;;12.03;;
4961;SDS011;2496;52.468;13.342;2023-06-24T06:18:00;15.30;;;10.77;;
4961;SDS011;2496;52.468;13.342;2023-06-24T06:20:28;13.73;;;10.57;;
4961;SDS011;2496;52.468;13.342;2023-06-24T06:22:55;18.17;;;11.73;;
4961;SDS011;2496;52.468;13.342;2023-06-24T06:25:23;15.00;;;11.77;;
4961;SDS011;2496;52.468;13.342;2023-06-24T06:27:50;15.10;;;11.00;;
4961;SDS011;2496;52.468;13.342;2023-06-24T06:30:17;14.63;;;11.43;;
4961;SDS011;2496;52.468;13.342;2023-06-24T06:32:44;21.37;;;11.40;;
4961;SDS011;2496;52.468;13.342;2023-06-24T06:35:11;13.63;;;10.77;;
4961;SDS011;2496;52.468;13.342;2023-06-24T06:37:39;12.37;;;10.17;;
4961;SDS011;2496;52.468;13.342;2023-06-24T06:40:07;13.30;;;10.10;;
4961;SDS011;2496;52.468;13.342;2023-06-24T06:42:34;14.23;;;10.13;;
4961;SDS011;2496;52.468;13.342;2023-06-24T06:45:01;15.03;;;10.50;;
4961;SDS011;2496;52.468;13.342;2023-06-24T06:47:28;13.90;;;10.33;;
4961;SDS011;2496;52.468;13.342;2023-06-24T06:49:55;13.60;;;10.07;;
4961;SDS011;2496;52.468;13.342;2023-06-24T06:52:22;14.03;;;10.50;;
4961;SDS011;2496;52.468;13.342;2023-06-24T06:54:50;13.57;;;9.70;;
4961;SDS011;2496;52.468;13.342;2023-06-24T06:57:17;11.17;;;9.17;;
4961;SDS011;2496;52.468;13.342;2023-06-24T06:59:44;12.97;;;9.13;;
4961;SDS011;2496;52.468;13.342;2023-06-24T07:02:11;9.67;;;8.67;;
4961;SDS011;2496;52.468;13.342;2023-06-24T07:04:38;12.70;;;8.33;;
4961;SDS011;2496;52.468;13.342;2023-06-24T07:07:05;10.80;;;8.60;;
4961;SDS011;2496;52.468;13.342;2023-06-24T07:09:32;12.57;;;9.30;;
4961;SDS011;2496;52.468;13.342;2023-06-24T07:12:00;11.27;;;8.73;;
4961;SDS011;2496;52.468;13.342;2023-06-24T07:14:27;8.30;;;7.23;;
4961;SDS011;2496;52.468;13.342;2023-06-24T07:16:54;13.00;;;7.10;;
4961;SDS011;2496;52.468;13.342;2023-06-24T07:19:21;14.10;;;7.03;;
4961;SDS011;2496;52.468;13.342;2023-06-24T07:21:48;9.23;;;7.63;;
4961;SDS011;2496;52.468;13.342;2023-06-24T07:24:15;13.03;;;8.87;;
4961;SDS011;2496;52.468;13.342;2023-06-24T07:26:42;10.53;;;7.60;;
4961;SDS011;2496;52.468;13.342;2023-06-24T07:29:11;10.00;;;8.07;;
4961;SDS011;2496;52.468;13.342;2023-06-24T07:31:38;14.87;;;7.93;;
4961;SDS011;2496;52.468;13.342;2023-06-24T07:34:05;10.90;;;7.60;;
4961;SDS011;2496;52.468;13.342;2023-06-24T07:36:32;9.50;;;7.03;;
4961;SDS011;2496;52.468;13.342;2023-06-24T07:38:58;7.80;;;7.00;;
4961;SDS011;2496;52.468;13.342;2023-06-24T07:41:25;9.40;;;6.80;;
4961;SDS011;2496;52.468;13.342;2023-06-24T07:43:52;7.83;;;6.03;;
4961;SDS011;2496;52.468;13.342;2023-06-24T07:46:21;8.80;;;7.10;;
4961;SDS011;2496;52.468;13.342;2023-06-24T07:48:48;11.40;;;6.93;;
4961;SDS011;2496;52.468;13.342;2023-06-24T07:51:15;7.40;;;6.07;;
4961;SDS011;2496;52.468;13.342;2023-06-24T07:53:43;8.17;;;6.47;;
4961;SDS011;2496;52.468;13.342;2023-06-24T07:56:10;8.10;;;6.60;;
4961;SDS011;2496;52.468;13.342;2023-06-24T07:58:37;7.43;;;6.17;;
4961;SDS011;2496;52.468;13.342;2023-06-24T08:01:04;6.97;;;6.13;;
4961;SDS011;2496;52.468;13.342;2023-06-24T08:03:33;14.43;;;6.03;;
4961;SDS011;2496;52.468;13.342;2023-06-24T08:06:01;15.13;;;6.27;;
4961;SDS011;2496;52.468;13.342;2023-06-24T08:08:28;7.23;;;5.97;;
4961;SDS011;2496;52.468;13.342;2023-06-24T08:10:55;7.30;;;6.50;;
4961;SDS011;2496;52.468;13.342;2023-06-24T08:13:22;11.13;;;6.60;;
4961;SDS011;2496;52.468;13.342;2023-06-24T08:15:49;9.70;;;5.60;;
4961;SDS011;2496;52.468;13.342;2023-06-24T08:18:16;8.93;;;6.40;;
4961;SDS011;2496;52.468;13.342;2023-06-24T08:20:45;10.13;;;6.17;;
4961;SDS011;2496;52.468;13.342;2023-06-24T08:23:12;8.67;;;7.03;;
4961;SDS011;2496;52.468;13.342;2023-06-24T08:25:39;8.30;;;6.33;;
4961;SDS011;2496;52.468;13.342;2023-06-24T08:28:06;7.03;;;5.93;;
4961;SDS011;2496;52.468;13.342;2023-06-24T08:30:33;8.50;;;6.30;;
4961;SDS011;2496;52.468;13.342;2023-06-24T08:33:00;12.87;;;6.83;;
4961;SDS011;2496;52.468;13.342;2023-06-24T08:35:27;7.93;;;6.23;;
4961;SDS011;2496;52.468;13.342;2023-06-24T08:37:55;10.40;;;6.60;;
4961;SDS011;2496;52.468;13.342;2023-06-24T08:40:22;8.07;;;6.60;;
4961;SDS011;2496;52.468;13.342;2023-06-24T08:42:49;9.07;;;6.37;;
4961;SDS011;2496;52.468;13.342;2023-06-24T08:45:16;10.33;;;6.53;;
4961;SDS011;2496;52.468;13.342;2023-06-24T08:47:43;7.57;;;6.77;;
4961;SDS011;2496;52.468;13.342;2023-06-24T08:50:12;7.70;;;6.13;;
4961;SDS011;2496;52.468;13.342;2023-06-24T08:52:42;8.27;;;6.33;;
4961;SDS011;2496;52.468;13.342;2023-06-24T08:55:12;10.13;;;6.50;;
4961;SDS011;2496;52.468;13.342;2023-06-24T08:57:42;8.83;;;6.73;;
4961;SDS011;2496;52.468;13.342;2023-06-24T09:00:09;8.00;;;6.07;;
4961;SDS011;2496;52.468;13.342;2023-06-24T09:02:37;8.77;;;6.10;;
4961;SDS011;2496;52.468;13.342;2023-06-24T09:05:04;10.10;;;6.10;;
4961;SDS011;2496;52.468;13.342;2023-06-24T09:07:31;11.77;;;6.77;;
4961;SDS011;2496;52.468;13.342;2023-06-24T09:09:59;7.83;;;5.80;;
4961;SDS011;2496;52.468;13.342;2023-06-24T09:12:28;11.00;;;6.57;;
4961;SDS011;2496;52.468;13.342;2023-06-24T09:14:58;10.83;;;6.60;;
4961;SDS011;2496;52.468;13.342;2023-06-24T09:17:25;16.53;;;6.47;;
4961;SDS011;2496;52.468;13.342;2023-06-24T09:19:53;11.87;;;6.80;;
4961;SDS011;2496;52.468;13.342;2023-06-24T09:22:29;12.90;;;6.30;;
4961;SDS011;2496;52.468;13.342;2023-06-24T09:24:56;13.33;;;6.17;;
4961;SDS011;2496;52.468;13.342;2023-06-24T09:27:30;9.27;;;6.40;;
4961;SDS011;2496;52.468;13.342;2023-06-24T09:29:59;7.57;;;5.60;;
4961;SDS011;2496;52.468;13.342;2023-06-24T09:32:26;9.40;;;5.10;;
4961;SDS011;2496;52.468;13.342;2023-06-24T09:34:56;11.50;;;4.90;;
4961;SDS011;2496;52.468;13.342;2023-06-24T09:37:24;6.93;;;5.47;;
4961;SDS011;2496;52.468;13.342;2023-06-24T09:39:56;8.27;;;4.80;;
4961;SDS011;2496;52.468;13.342;2023-06-24T09:42:23;9.50;;;6.67;;
4961;SDS011;2496;52.468;13.342;2023-06-24T09:44:54;8.27;;;5.57;;
4961;SDS011;2496;52.468;13.342;2023-06-24T09:47:21;5.53;;;5.03;;
4961;SDS011;2496;52.468;13.342;2023-06-24T09:49:51;9.70;;;5.97;;
4961;SDS011;2496;52.468;13.342;2023-06-24T09:52:19;8.00;;;5.43;;
4961;SDS011;2496;52.468;13.342;2023-06-24T09:54:48;8.90;;;4.70;;
4961;SDS011;2496;52.468;13.342;2023-06-24T09:57:17;5.10;;;4.53;;
4961;SDS011;2496;52.468;13.342;2023-06-24T09:59:49;12.00;;;4.50;;
4961;SDS011;2496;52.468;13.342;2023-06-24T10:02:19;9.00;;;5.17;;
4961;SDS011;2496;52.468;13.342;2023-06-24T10:04:47;6.93;;;4.80;;
4961;SDS011;2496;52.468;13.342;2023-06-24T10:07:15;5.33;;;4.70;;
4961;SDS011;2496;52.468;13.342;2023-06-24T10:09:43;6.43;;;3.97;;
4961;SDS011;2496;52.468;13.342;2023-06-24T10:12:10;8.90;;;4.90;;
4961;SDS011;2496;52.468;13.342;2023-06-24T10:14:37;4.70;;;4.30;;
4961;SDS011;2496;52.468;13.342;2023-06-24T10:17:05;11.93;;;4.90;;
4961;SDS011;2496;52.468;13.342;2023-06-24T10:19:38;11.17;;;6.43;;
4961;SDS011;2496;52.468;13.342;2023-06-24T10:22:07;6.00;;;4.53;;
4961;SDS011;2496;52.468;13.342;2023-06-24T10:24:36;8.33;;;5.00;;
4961;SDS011;2496;52.468;13.342;2023-06-24T10:27:05;5.70;;;4.80;;
4961;SDS011;2496;52.468;13.342;2023-06-24T10:29:34;7.10;;;6.40;;
4961;SDS011;2496;52.468;13.342;2023-06-24T10:32:05;8.20;;;5.47;;
4961;SDS011;2496;52.468;13.342;2023-06-24T10:34:33;5.47;;;4.80;;
4961;SDS011;2496;52.468;13.342;2023-06-24T10:37:13;5.40;;;4.90;;
4961;SDS011;2496;52.468;13.342;2023-06-24T10:39:48;7.90;;;4.60;;
4961;SDS011;2496;52.468;13.342;2023-06-24T10:42:29;7.00;;;5.77;;
4961;SDS011;2496;52.468;13.342;2023-06-24T10:45:13;11.40;;;5.70;;
4961;SDS011;2496;52.468;13.342;2023-06-24T10:47:49;7.53;;;5.77;;
4961;SDS011;2496;52.468;13.342;2023-06-24T10:50:20;6.13;;;4.37;;
4961;SDS011;2496;52.468;13.342;2023-06-24T10:52:49;8.13;;;4.37;;
4961;SDS011;2496;52.468;13.342;2023-06-24T10:55:20;6.87;;;4.77;;
4961;SDS011;2496;52.468;13.342;2023-06-24T10:57:49;6.37;;;5.00;;
4961;SDS011;2496;52.468;13.342;2023-06-24T11:00:16;5.87;;;5.27;;
4961;SDS011;2496;52.468;13.342;2023-06-24T11:02:43;7.60;;;5.37;;
4961;SDS011;2496;52.468;13.342;2023-06-24T11:05:10;6.70;;;4.97;;
4961;SDS011;2496;52.468;13.342;2023-06-24T11:07:39;9.87;;;5.93;;
4961;SDS011;2496;52.468;13.342;2023-06-24T11:10:09;9.50;;;5.83;;
4961;SDS011;2496;52.468;13.342;2023-06-24T11:12:38;6.90;;;5.00;;
4961;SDS011;2496;52.468;13.342;2023-06-24T11:15:06;6.30;;;4.40;;
4961;SDS011;2496;52.468;13.342;2023-06-24T11:17:35;6.10;;;4.13;;
4961;SDS011;2496;52.468;13.342;2023-06-24T11:20:06;5.50;;;4.90;;
4961;SDS011;2496;52.468;13.342;2023-06-24T11:22:34;7.10;;;4.60;;
4961;SDS011;2496;52.468;13.342;2023-06-24T11:25:02;5.03;;;4.40;;
4961;SDS011;2496;52.468;13.342;2023-06-24T11:27:31;5.50;;;4.50;;
4961;SDS011;2496;52.468;13.342;2023-06-24T11:29:59;5.17;;;4.67;;
4961;SDS011;2496;52.468;13.342;2023-06-24T11:32:34;6.33;;;4.23;;
4961;SDS011;2496;52.468;13.342;2023-06-24T11:35:02;4.77;;;4.20;;
4961;SDS011;2496;52.468;13.342;2023-06-24T11:37:30;11.20;;;5.10;;
4961;SDS011;2496;52.468;13.342;2023-06-24T11:40:03;12.33;;;5.10;;
4961;SDS011;2496;52.468;13.342;2023-06-24T11:42:32;7.87;;;5.20;;
4961;SDS011;2496;52.468;13.342;2023-06-24T11:45:02;6.33;;;5.20;;
4961;SDS011;2496;52.468;13.342;2023-06-24T11:47:33;8.63;;;5.03;;
4961;SDS011;2496;52.468;13.342;2023-06-24T11:50:02;6.43;;;5.13;;
4961;SDS011;2496;52.468;13.342;2023-06-24T11:52:37;11.37;;;5.03;;
4961;SDS011;2496;52.468;13.342;2023-06-24T11:55:12;6.73;;;4.40;;
4961;SDS011;2496;52.468;13.342;2023-06-24T11:57:49;5.60;;;4.10;;
4961;SDS011;2496;52.468;13.342;2023-06-24T12:00:19;8.10;;;5.57;;
4961;SDS011;2496;52.468;13.342;2023-06-24T12:02:49;7.03;;;5.07;;
4961;SDS011;2496;52.468;13.342;2023-06-24T12:05:19;8.77;;;5.57;;
4961;SDS011;2496;52.468;13.342;2023-06-24T12:07:53;4.60;;;4.20;;
4961;SDS011;2496;52.468;13.342;2023-06-24T12:10:23;8.20;;;5.27;;
4961;SDS011;2496;52.468;13.342;2023-06-24T12:12:50;7.80;;;4.90;;
4961;SDS011;2496;52.468;13.342;2023-06-24T12:15:17;6.70;;;4.60;;
4961;SDS011;2496;52.468;13.342;2023-06-24T12:17:45;7.23;;;5.13;;
4961;SDS011;2496;52.468;13.342;2023-06-24T12:20:12;7.70;;;4.50;;
4961;SDS011;2496;52.468;13.342;2023-06-24T12:22:40;4.90;;;4.30;;
4961;SDS011;2496;52.468;13.342;2023-06-24T12:25:08;7.87;;;4.13;;
4961;SDS011;2496;52.468;13.342;2023-06-24T12:27:37;6.63;;;4.83;;
4961;SDS011;2496;52.468;13.342;2023-06-24T12:30:05;6.20;;;4.80;;
4961;SDS011;2496;52.468;13.342;2023-06-24T12:32:33;6.73;;;6.03;;
4961;SDS011;2496;52.468;13.342;2023-06-24T12:35:00;6.17;;;4.57;;
4961;SDS011;2496;52.468;13.342;2023-06-24T12:37:29;11.43;;;7.90;;
4961;SDS011;2496;52.468;13.342;2023-06-24T12:39:57;9.83;;;4.90;;
4961;SDS011;2496;52.468;13.342;2023-06-24T12:42:24;11.73;;;4.70;;
4961;SDS011;2496;52.468;13.342;2023-06-24T12:44:53;5.40;;;4.90;;
4961;SDS011;2496;52.468;13.342;2023-06-24T12:47:20;8.83;;;4.83;;
4961;SDS011;2496;52.468;13.342;2023-06-24T12:49:47;5.10;;;4.60;;
4961;SDS011;2496;52.468;13.342;2023-06-24T12:52:15;11.43;;;4.93;;
4961;SDS011;2496;52.468;13.342;2023-06-24T12:54:42;6.60;;;5.10;;
4961;SDS011;2496;52.468;13.342;2023-06-24T12:57:09;8.83;;;5.40;;
4961;SDS011;2496;52.468;13.342;2023-06-24T12:59:36;6.73;;;4.73;;
4961;SDS011;2496;52.468;13.342;2023-06-24T13:02:05;5.43;;;4.93;;
4961;SDS011;2496;52.468;13.342;2023-06-24T13:04:32;7.93;;;6.17;;
4961;SDS011;2496;52.468;13.342;2023-06-24T13:06:59;9.03;;;5.53;;
4961;SDS011;2496;52.468;13.342;2023-06-24T13:09:28;14.30;;;4.80;;
4961;SDS011;2496;52.468;13.342;2023-06-24T13:11:55;8.60;;;5.30;;
4961;SDS011;2496;52.468;13.342;2023-06-24T13:14:23;8.03;;;5.90;;
4961;SDS011;2496;52.468;13.342;2023-06-24T13:16:52;9.80;;;5.30;;
4961;SDS011;2496;52.468;13.342;2023-06-24T13:19:20;7.80;;;5.47;;
4961;SDS011;2496;52.468;13.342;2023-06-24T13:21:47;6.40;;;5.03;;
4961;SDS011;2496;52.468;13.342;2023-06-24T13:24:15;7.90;;;4.37;;
4961;SDS011;2496;52.468;13.342;2023-06-24T13:26:42;8.30;;;5.10;;
4961;SDS011;2496;52.468;13.342;2023-06-24T13:29:09;9.93;;;5.23;;
4961;SDS011;2496;52.468;13.342;2023-06-24T13:31:36;7.13;;;5.17;;
4961;SDS011;2496;52.468;13.342;2023-06-24T13:34:04;7.73;;;5.13;;
4961;SDS011;2496;52.468;13.342;2023-06-24T13:36:33;5.47;;;4.93;;
4961;SDS011;2496;52.468;13.342;2023-06-24T13:39:01;6.53;;;5.60;;
4961;SDS011;2496;52.468;13.342;2023-06-24T13:41:29;5.03;;;4.03;;
4961;SDS011;2496;52.468;13.342;2023-06-24T13:43:57;6.33;;;4.70;;
4961;SDS011;2496;52.468;13.342;2023-06-24T13:46:25;6.73;;;5.00;;
4961;SDS011;2496;52.468;13.342;2023-06-24T13:48:52;6.10;;;5.50;;
4961;SDS011;2496;52.468;13.342;2023-06-24T13:51:19;7.23;;;5.10;;
4961;SDS011;2496;52.468;13.342;2023-06-24T13:53:49;7.50;;;6.70;;
4961;SDS011;2496;52.468;13.342;2023-06-24T13:56:17;8.03;;;5.33;;
4961;SDS011;2496;52.468;13.342;2023-06-24T13:58:44;13.83;;;6.93;;
4961;SDS011;2496;52.468;13.342;2023-06-24T14:01:11;8.37;;;6.73;;
4961;SDS011;2496;52.468;13.342;2023-06-24T14:03:39;6.00;;;5.40;;
4961;SDS011;2496;52.468;13.342;2023-06-24T14:06:06;9.40;;;6.10;;
4961;SDS011;2496;52.468;13.342;2023-06-24T14:08:33;7.90;;;6.03;;
4961;SDS011;2496;52.468;13.342;2023-06-24T14:11:02;11.60;;;6.33;;
4961;SDS011;2496;52.468;13.342;2023-06-24T14:13:29;7.50;;;5.70;;
4961;SDS011;2496;52.468;13.342;2023-06-24T14:15:57;7.00;;;5.43;;
4961;SDS011;2496;52.468;13.342;2023-06-24T14:18:24;4.47;;;4.07;;
4961;SDS011;2496;52.468;13.342;2023-06-24T14:20:52;11.90;;;4.77;;
4961;SDS011;2496;52.468;13.342;2023-06-24T14:23:19;5.53;;;5.03;;
4961;SDS011;2496;52.468;13.342;2023-06-24T14:25:46;7.40;;;4.90;;
4961;SDS011;2496;52.468;13.342;2023-06-24T14:28:15;6.30;;;5.13;;
4961;SDS011;2496;52.468;13.342;2023-06-24T14:30:42;7.53;;;5.37;;
4961;SDS011;2496;52.468;13.342;2023-06-24T14:33:11;8.60;;;6.60;;
4961;SDS011;2496;52.468;13.342;2023-06-24T14:35:38;6.40;;;5.10;;
4961;SDS011;2496;52.468;13.342;2023-06-24T14:38:05;6.23;;;4.90;;
4961;SDS011;2496;52.468;13.342;2023-06-24T14:40:33;7.17;;;6.03;;
4961;SDS011;2496;52.468;13.342;2023-06-24T14:43:00;7.80;;;6.30;;
4961;SDS011;2496;52.468;13.342;2023-06-24T14:45:28;7.43;;;5.47;;
4961;SDS011;2496;52.468;13.342;2023-06-24T14:47:56;6.00;;;4.50;;
4961;SDS011;2496;52.468;13.342;2023-06-24T14:50:23;5.63;;;4.73;;
4961;SDS011;2496;52.468;13.342;2023-06-24T14:52:50;5.67;;;4.97;;
4961;SDS011;2496;52.468;13.342;2023-06-24T14:55:18;5.30;;;4.63;;